createdAt,value
2023-04-02T00:02:22.966Z,100.00
2023-04-02T00:05:19.451Z,100.00
2023-04-02T00:07:51.260Z,100.00
2023-04-02T00:10:28.284Z,100.00
2023-04-02T00:13:34.074Z,100.00
2023-04-02T00:16:03.285Z,100.00
2023-04-02T00:18:30.965Z,100.00
2023-04-02T00:21:22.094Z,100.00
2023-04-02T00:23:48.571Z,100.00
2023-04-02T00:26:21.691Z,100.00
2023-04-02T00:28:48.056Z,100.00
2023-04-02T00:31:14.593Z,100.00
2023-04-02T00:33:43.597Z,100.00
2023-04-02T00:36:10.011Z,100.00
2023-04-02T00:38:36.842Z,100.00
2023-04-02T00:41:06.375Z,100.00
2023-04-02T00:43:38.510Z,100.00
2023-04-02T00:46:14.130Z,100.00
2023-04-02T00:48:52.664Z,100.00
2023-04-02T00:51:36.498Z,100.00
2023-04-02T00:54:06.594Z,100.00
2023-04-02T00:56:43.200Z,100.00
2023-04-02T00:59:29.648Z,100.00
2023-04-02T01:02:18.741Z,100.00
2023-04-02T01:05:11.335Z,100.00
2023-04-02T01:08:16.707Z,100.00
2023-04-02T01:10:58.319Z,100.00
2023-04-02T01:13:41.747Z,100.00
2023-04-02T01:16:33.105Z,100.00
2023-04-02T01:19:31.821Z,100.00
2023-04-02T01:22:30.873Z,100.00
2023-04-02T01:24:58.282Z,100.00
2023-04-02T01:27:34.634Z,100.00
2023-04-02T01:30:03.225Z,100.00
2023-04-02T01:32:30.354Z,100.00
2023-04-02T01:34:57.473Z,100.00
2023-04-02T01:37:49.622Z,100.00
2023-04-02T01:40:33.578Z,100.00
2023-04-02T01:43:18.106Z,100.00
2023-04-02T01:45:44.552Z,100.00
2023-04-02T01:48:27.282Z,100.00
2023-04-02T01:50:56.864Z,100.00
2023-04-02T01:53:25.858Z,100.00
2023-04-02T01:55:55.346Z,100.00
2023-04-02T01:58:25.339Z,100.00
2023-04-02T02:01:05.783Z,100.00
2023-04-02T02:03:33.626Z,100.00
2023-04-02T02:06:01.901Z,100.00
2023-04-02T02:08:39.088Z,100.00
2023-04-02T02:11:08.430Z,100.00
2023-04-02T02:13:34.781Z,100.00
2023-04-02T02:16:03.918Z,100.00
2023-04-02T02:18:31.072Z,100.00
2023-04-02T02:21:01.069Z,100.00
2023-04-02T02:23:29.748Z,100.00
2023-04-02T02:25:56.507Z,100.00
2023-04-02T02:28:31.204Z,100.00
2023-04-02T02:31:02.728Z,100.00
2023-04-02T02:33:36.892Z,100.00
2023-04-02T02:36:24.083Z,100.00
2023-04-02T02:38:57.792Z,100.00
2023-04-02T02:41:42.041Z,100.00
2023-04-02T02:44:08.477Z,100.00
2023-04-02T02:46:39.307Z,100.00
2023-04-02T02:49:07.236Z,100.00
2023-04-02T02:51:45.322Z,100.00
2023-04-02T02:54:13.988Z,100.00
2023-04-02T02:56:47.037Z,100.00
2023-04-02T02:59:16.030Z,100.00
2023-04-02T03:01:44.183Z,100.00
2023-04-02T03:04:11.032Z,100.00
2023-04-02T03:06:37.671Z,100.00
2023-04-02T03:09:15.806Z,100.00
2023-04-02T03:12:08.622Z,100.00
2023-04-02T03:14:46.346Z,100.00
2023-04-02T03:17:36.779Z,100.00
2023-04-02T03:20:40.894Z,100.00
2023-04-02T03:23:19.165Z,100.00
2023-04-02T03:26:04.855Z,100.00
2023-04-02T03:28:35.545Z,100.00
2023-04-02T03:31:14.018Z,100.00
2023-04-02T03:33:46.004Z,100.00
2023-04-02T03:36:43.476Z,100.00
2023-04-02T03:39:31.789Z,100.00
2023-04-02T03:42:15.493Z,100.00
2023-04-02T03:44:51.294Z,100.00
2023-04-02T03:47:43.832Z,100.00
2023-04-02T03:50:28.749Z,100.00
2023-04-02T03:52:57.961Z,100.00
2023-04-02T03:55:28.797Z,100.00
2023-04-02T03:58:17.004Z,100.00
2023-04-02T04:01:05.683Z,100.00
2023-04-02T04:03:45.786Z,100.00
2023-04-02T04:06:21.323Z,100.00
2023-04-02T04:08:55.959Z,100.00
2023-04-02T04:11:27.490Z,100.00
2023-04-02T04:14:07.502Z,100.00
2023-04-02T04:16:49.412Z,100.00
2023-04-02T04:19:21.880Z,100.00
2023-04-02T04:21:48.423Z,100.00
2023-04-02T04:24:22.625Z,100.00
2023-04-02T04:27:03.611Z,100.00
2023-04-02T04:29:55.735Z,100.00
2023-04-02T04:32:32.531Z,100.00
2023-04-02T04:35:29.350Z,100.00
2023-04-02T04:38:14.591Z,100.00
2023-04-02T04:40:52.345Z,100.00
2023-04-02T04:43:30.047Z,100.00
2023-04-02T04:46:03.434Z,100.00
2023-04-02T04:48:46.180Z,100.00
2023-04-02T04:51:27.233Z,100.00
2023-04-02T04:53:55.716Z,100.00
2023-04-02T04:56:28.372Z,100.00
2023-04-02T04:58:57.690Z,100.00
2023-04-02T05:01:40.680Z,100.00
2023-04-02T05:04:23.854Z,100.00
2023-04-02T05:07:09.254Z,100.00
2023-04-02T05:09:44.104Z,100.00
2023-04-02T05:12:22.587Z,100.00
2023-04-02T05:14:58.853Z,100.00
2023-04-02T05:17:33.825Z,100.00
2023-04-02T05:20:09.958Z,100.00
2023-04-02T05:22:50.910Z,100.00
2023-04-02T05:25:24.324Z,100.00
2023-04-02T05:28:26.666Z,100.00
2023-04-02T05:31:02.982Z,100.00
2023-04-02T05:33:31.686Z,100.00
2023-04-02T05:36:05.701Z,100.00
2023-04-02T05:38:35.581Z,100.00
2023-04-02T05:41:05.832Z,100.00
2023-04-02T05:43:35.396Z,100.00
2023-04-02T05:46:12.681Z,100.00
2023-04-02T05:48:43.375Z,100.00
2023-04-02T05:51:17.897Z,100.00
2023-04-02T05:53:55.412Z,100.00
2023-04-02T05:56:24.708Z,100.00
2023-04-02T05:58:55.944Z,100.00
2023-04-02T06:01:25.352Z,100.00
2023-04-02T06:04:13.260Z,100.00
2023-04-02T06:06:39.675Z,100.00
2023-04-02T06:09:12.996Z,100.00
2023-04-02T06:11:47.680Z,100.00
2023-04-02T06:14:16.056Z,100.00
2023-04-02T06:16:45.974Z,100.00
2023-04-02T06:19:22.230Z,100.00
2023-04-02T06:21:52.607Z,100.00
2023-04-02T06:24:25.048Z,100.00
2023-04-02T06:27:02.618Z,100.00
2023-04-02T06:29:42.538Z,100.00
2023-04-02T06:32:11.910Z,100.00
2023-04-02T06:34:40.894Z,100.00
2023-04-02T06:37:21.191Z,100.00
2023-04-02T06:39:47.827Z,100.00
2023-04-02T06:42:19.677Z,100.00
2023-04-02T06:44:46.292Z,100.00
2023-04-02T06:47:28.743Z,100.00
2023-04-02T06:49:59.010Z,100.00
2023-04-02T06:52:51.602Z,100.00
2023-04-02T06:55:30.066Z,100.00
2023-04-02T06:57:56.849Z,100.00
2023-04-02T07:00:36.104Z,100.00
2023-04-02T07:03:06.470Z,100.00
2023-04-02T07:05:33.162Z,100.00
2023-04-02T07:07:59.754Z,100.00
2023-04-02T07:10:26.157Z,100.00
2023-04-02T07:12:52.621Z,100.00
2023-04-02T07:15:19.819Z,100.00
2023-04-02T07:17:46.959Z,100.00
2023-04-02T07:20:27.239Z,100.00
2023-04-02T07:22:54.030Z,100.00
2023-04-02T07:25:20.695Z,100.00
2023-04-02T07:27:47.749Z,100.00
2023-04-02T07:30:14.470Z,100.00
2023-04-02T07:32:41.442Z,100.00
2023-04-02T07:35:08.489Z,100.00
2023-04-02T07:37:34.906Z,100.00
2023-04-02T07:40:01.210Z,100.00
2023-04-02T07:42:27.592Z,100.00
2023-04-02T07:44:53.968Z,100.00
2023-04-02T07:47:20.312Z,100.00
2023-04-02T07:49:46.982Z,100.00
2023-04-02T07:52:13.485Z,100.00
2023-04-02T07:54:39.942Z,100.00
2023-04-02T07:57:06.374Z,100.00
2023-04-02T07:59:32.881Z,100.00
2023-04-02T08:01:59.617Z,100.00
2023-04-02T08:04:27.342Z,100.00
2023-04-02T08:06:53.816Z,100.00
2023-04-02T08:09:20.264Z,100.00
2023-04-02T08:11:46.857Z,100.00
2023-04-02T08:14:14.062Z,100.00
2023-04-02T08:16:52.864Z,100.00
2023-04-02T08:19:20.000Z,100.00
2023-04-02T08:21:50.324Z,100.00
2023-04-02T08:24:19.724Z,100.00
2023-04-02T08:26:48.137Z,100.00
2023-04-02T08:29:14.813Z,100.00
2023-04-02T08:31:41.725Z,100.00
2023-04-02T08:34:08.340Z,100.00
2023-04-02T08:36:37.933Z,100.00
2023-04-02T08:39:10.894Z,100.00
2023-04-02T08:41:44.282Z,100.00
2023-04-02T08:44:29.757Z,100.00
2023-04-02T08:47:03.872Z,100.00
2023-04-02T08:49:44.846Z,100.00
2023-04-02T08:52:22.605Z,100.00
2023-04-02T08:54:49.830Z,100.00
2023-04-02T08:57:48.815Z,100.00
2023-04-02T09:00:15.806Z,99.86
2023-04-02T09:02:52.637Z,99.48
2023-04-02T09:05:25.907Z,100.00
2023-04-02T09:07:54.969Z,99.55
2023-04-02T09:10:31.353Z,99.17
2023-04-02T09:12:58.582Z,99.06
2023-04-02T09:15:34.001Z,99.45
2023-04-02T09:18:13.603Z,99.05
2023-04-02T09:20:40.819Z,98.14
2023-04-02T09:23:16.741Z,97.59
2023-04-02T09:25:57.422Z,97.86
2023-04-02T09:28:29.673Z,96.90
2023-04-02T09:31:07.337Z,96.80
2023-04-02T09:33:41.988Z,97.50
2023-04-02T09:36:29.008Z,96.88
2023-04-02T09:38:59.371Z,96.40
2023-04-02T09:41:29.566Z,95.87
2023-04-02T09:44:13.039Z,95.95
2023-04-02T09:46:48.802Z,95.13
2023-04-02T09:49:21.317Z,95.02
2023-04-02T09:52:16.292Z,94.33
2023-04-02T09:54:42.878Z,94.24
2023-04-02T09:57:24.325Z,94.23
2023-04-02T10:00:25.311Z,93.89
2023-04-02T10:03:23.274Z,93.29
2023-04-02T10:06:04.607Z,93.74
2023-04-02T10:08:32.386Z,93.41
2023-04-02T10:11:06.164Z,92.63
2023-04-02T10:13:46.190Z,92.33
2023-04-02T10:16:19.860Z,92.65
2023-04-02T10:18:53.854Z,92.68
2023-04-02T10:21:27.019Z,92.74
2023-04-02T10:23:54.733Z,92.47
2023-04-02T10:26:42.055Z,92.38
2023-04-02T10:29:44.065Z,91.94
2023-04-02T10:32:30.781Z,91.84
2023-04-02T10:35:14.008Z,91.39
2023-04-02T10:37:47.120Z,90.78
2023-04-02T10:40:34.961Z,90.58
2023-04-02T10:43:07.415Z,90.37
2023-04-02T10:45:44.601Z,90.38
2023-04-02T10:48:21.485Z,90.82
2023-04-02T10:51:03.389Z,90.55
2023-04-02T10:53:50.231Z,90.98
2023-04-02T10:56:16.988Z,90.42
2023-04-02T10:59:13.568Z,90.46
2023-04-02T11:01:43.310Z,90.39
2023-04-02T11:04:23.837Z,90.31
2023-04-02T11:07:11.114Z,89.44
2023-04-02T11:09:45.428Z,89.48
2023-04-02T11:12:22.781Z,88.93
2023-04-02T11:14:50.772Z,89.57
2023-04-02T11:17:18.426Z,89.39
2023-04-02T11:19:44.821Z,88.47
2023-04-02T11:22:17.278Z,88.13
2023-04-02T11:24:52.513Z,88.48
2023-04-02T11:27:30.517Z,88.05
2023-04-02T11:30:22.489Z,88.12
2023-04-02T11:32:49.765Z,87.35
2023-04-02T11:35:31.629Z,87.63
2023-04-02T11:38:21.079Z,87.23
2023-04-02T11:40:51.564Z,87.11
2023-04-02T11:43:33.236Z,86.40
2023-04-02T11:46:06.418Z,86.20
2023-04-02T11:48:36.052Z,86.42
2023-04-02T11:51:21.506Z,85.88
2023-04-02T11:53:53.874Z,86.29
2023-04-02T11:56:33.754Z,86.41
2023-04-02T11:59:27.534Z,85.85
2023-04-02T12:02:02.908Z,85.73
2023-04-02T12:04:56.486Z,85.68
2023-04-02T12:08:07.409Z,85.98
2023-04-02T12:10:52.508Z,86.19
2023-04-02T12:13:41.896Z,85.00
2023-04-02T12:16:12.923Z,85.61
2023-04-02T12:18:44.723Z,84.45
2023-04-02T12:21:16.310Z,84.30
2023-04-02T12:23:46.321Z,83.52
2023-04-02T12:26:37.024Z,83.64
2023-04-02T12:29:21.984Z,83.49
2023-04-02T12:31:48.572Z,83.73
2023-04-02T12:34:20.488Z,83.88
2023-04-02T12:37:04.553Z,83.69
2023-04-02T12:39:33.153Z,83.71
2023-04-02T12:41:59.762Z,84.19
2023-04-02T12:44:30.447Z,84.25
2023-04-02T12:46:58.695Z,84.30
2023-04-02T12:49:38.635Z,84.36
2023-04-02T12:52:12.350Z,83.75
2023-04-02T12:54:48.694Z,83.74
2023-04-02T12:57:38.170Z,83.46
2023-04-02T13:00:25.013Z,83.13
2023-04-02T13:02:58.541Z,82.87
2023-04-02T13:05:37.376Z,82.44
2023-04-02T13:08:05.594Z,82.75
2023-04-02T13:10:32.350Z,82.40
2023-04-02T13:13:01.867Z,82.03
2023-04-02T13:15:31.901Z,82.22
2023-04-02T13:18:17.245Z,81.55
2023-04-02T13:20:58.039Z,81.57
2023-04-02T13:23:30.864Z,81.78
2023-04-02T13:25:59.579Z,81.82
2023-04-02T13:28:26.441Z,81.19
2023-04-02T13:30:52.863Z,81.14
2023-04-02T13:33:20.278Z,81.03
2023-04-02T13:35:47.006Z,80.66
2023-04-02T13:38:13.463Z,81.27
2023-04-02T13:40:40.089Z,80.83
2023-04-02T13:43:08.047Z,80.77
2023-04-02T13:45:39.085Z,80.27
2023-04-02T13:48:06.116Z,79.44
2023-04-02T13:50:34.963Z,80.09
2023-04-02T13:53:09.703Z,80.35
2023-04-02T13:55:41.931Z,79.99
2023-04-02T13:58:09.800Z,80.11
2023-04-02T14:00:37.846Z,79.61
2023-04-02T14:03:09.945Z,79.70
2023-04-02T14:06:00.683Z,79.19
2023-04-02T14:08:46.508Z,79.12
2023-04-02T14:11:45.157Z,78.82
2023-04-02T14:14:35.407Z,78.73
2023-04-02T14:17:17.386Z,78.96
2023-04-02T14:19:52.528Z,78.82
2023-04-02T14:22:28.332Z,78.62
2023-04-02T14:25:06.097Z,78.65
2023-04-02T14:27:47.202Z,77.65
2023-04-02T14:30:27.271Z,77.23
2023-04-02T14:33:05.387Z,77.30
2023-04-02T14:35:36.395Z,77.48
2023-04-02T14:38:13.741Z,76.92
2023-04-02T14:40:56.136Z,76.97
2023-04-02T14:43:25.584Z,76.64
2023-04-02T14:46:06.514Z,76.52
2023-04-02T14:48:44.097Z,76.74
2023-04-02T14:51:51.385Z,75.92
2023-04-02T14:54:38.508Z,76.44
2023-04-02T14:57:33.343Z,76.61
2023-04-02T15:00:37.784Z,76.03
2023-04-02T15:03:24.810Z,75.63
2023-04-02T15:05:58.818Z,75.87
2023-04-02T15:08:28.699Z,76.08
2023-04-02T15:11:25.892Z,76.16
2023-04-02T15:14:03.796Z,76.10
2023-04-02T15:16:32.272Z,74.91
2023-04-02T15:19:00.770Z,74.64
2023-04-02T15:21:34.251Z,74.36
2023-04-02T15:24:22.697Z,74.06
2023-04-02T15:26:59.108Z,74.31
2023-04-02T15:29:47.575Z,73.33
2023-04-02T15:32:32.216Z,73.40
2023-04-02T15:35:08.835Z,74.22
2023-04-02T15:37:53.930Z,73.46
2023-04-02T15:40:48.487Z,73.92
2023-04-02T15:43:38.181Z,72.87
2023-04-02T15:46:16.303Z,72.74
2023-04-02T15:49:06.046Z,72.81
2023-04-02T15:51:53.734Z,72.14
2023-04-02T15:54:45.939Z,71.73
2023-04-02T15:57:24.541Z,72.25
2023-04-02T16:00:04.109Z,72.09
2023-04-02T16:02:48.839Z,71.35
2023-04-02T16:05:22.389Z,71.37
2023-04-02T16:08:06.921Z,71.04
2023-04-02T16:10:42.045Z,70.89
2023-04-02T16:13:25.872Z,70.86
2023-04-02T16:16:27.843Z,70.82
2023-04-02T16:19:25.499Z,70.04
2023-04-02T16:22:06.851Z,69.73
2023-04-02T16:24:33.226Z,69.56
2023-04-02T16:27:15.002Z,69.95
2023-04-02T16:30:13.107Z,69.18
2023-04-02T16:33:07.478Z,69.16
2023-04-02T16:35:56.771Z,69.56
2023-04-02T16:38:58.653Z,69.01
2023-04-02T16:41:44.238Z,68.65
2023-04-02T16:44:28.583Z,68.27
2023-04-02T16:47:19.730Z,68.59
2023-04-02T16:50:04.708Z,69.26
2023-04-02T16:52:56.833Z,69.07
2023-04-02T16:55:37.166Z,68.42
2023-04-02T16:58:38.152Z,68.47
2023-04-02T17:01:43.311Z,68.54
2023-04-02T17:04:28.386Z,68.43
2023-04-02T17:07:10.386Z,68.43
2023-04-02T17:09:48.242Z,68.49
2023-04-02T17:12:27.488Z,69.09
2023-04-02T17:15:03.256Z,68.61
2023-04-02T17:17:30.323Z,68.00
2023-04-02T17:20:00.412Z,68.25
2023-04-02T17:22:30.719Z,68.50
2023-04-02T17:25:00.253Z,67.55
2023-04-02T17:27:37.300Z,67.87
2023-04-02T17:30:15.479Z,68.10
2023-04-02T17:32:42.721Z,68.01
2023-04-02T17:35:39.953Z,67.64
2023-04-02T17:38:34.689Z,67.91
2023-04-02T17:41:07.941Z,68.20
2023-04-02T17:43:53.139Z,67.78
2023-04-02T17:46:34.861Z,68.21
2023-04-02T17:49:24.397Z,68.29
2023-04-02T17:52:15.133Z,67.33
2023-04-02T17:54:42.441Z,67.67
2023-04-02T17:57:37.346Z,67.78
2023-04-02T18:00:25.357Z,67.88
2023-04-02T18:03:07.554Z,67.93
2023-04-02T18:05:44.852Z,68.28
2023-04-02T18:08:44.430Z,68.00
2023-04-02T18:11:18.908Z,67.30
2023-04-02T18:13:55.143Z,67.54
2023-04-02T18:16:36.150Z,67.78
2023-04-02T18:19:16.516Z,68.18
2023-04-02T18:22:02.094Z,67.31
2023-04-02T18:24:46.430Z,67.83
2023-04-02T18:27:27.932Z,67.87
2023-04-02T18:30:13.251Z,67.69
2023-04-02T18:32:49.842Z,67.82
2023-04-02T18:35:30.547Z,68.31
2023-04-02T18:38:18.787Z,68.12
2023-04-02T18:40:54.239Z,68.46
2023-04-02T18:43:32.703Z,68.60
2023-04-02T18:46:11.241Z,68.67
2023-04-02T18:49:19.197Z,68.62
2023-04-02T18:51:49.088Z,68.32
2023-04-02T18:54:25.322Z,68.33
2023-04-02T18:56:51.747Z,69.03
2023-04-02T18:59:38.096Z,68.83
2023-04-02T19:02:24.451Z,69.01
2023-04-02T19:05:23.476Z,69.37
2023-04-02T19:07:55.113Z,68.70
2023-04-02T19:10:37.006Z,69.01
2023-04-02T19:13:12.725Z,69.11
2023-04-02T19:15:46.105Z,68.98
2023-04-02T19:18:25.661Z,68.99
2023-04-02T19:21:04.594Z,68.98
2023-04-02T19:23:49.631Z,68.72
2023-04-02T19:26:22.618Z,68.58
2023-04-02T19:29:02.617Z,68.58
2023-04-02T19:31:39.487Z,68.20
2023-04-02T19:34:23.895Z,67.62
2023-04-02T19:37:06.145Z,68.24
2023-04-02T19:40:01.143Z,67.81
2023-04-02T19:42:50.836Z,67.64
2023-04-02T19:45:39.547Z,67.02
2023-04-02T19:48:11.215Z,67.54
2023-04-02T19:50:38.215Z,67.67
2023-04-02T19:53:04.551Z,67.14
2023-04-02T19:55:30.984Z,67.31
2023-04-02T19:58:08.437Z,66.96
2023-04-02T20:00:39.446Z,67.06
2023-04-02T20:03:05.944Z,67.63
2023-04-02T20:05:32.347Z,68.05
2023-04-02T20:07:58.758Z,67.94
2023-04-02T20:10:25.109Z,67.66
2023-04-02T20:12:51.554Z,67.60
2023-04-02T20:15:17.897Z,67.94
2023-04-02T20:17:44.306Z,67.35
2023-04-02T20:20:13.387Z,67.38
2023-04-02T20:22:39.736Z,67.55
2023-04-02T20:25:06.498Z,67.62
2023-04-02T20:27:32.841Z,67.47
2023-04-02T20:29:59.194Z,67.30
2023-04-02T20:32:25.664Z,67.59
2023-04-02T20:34:53.179Z,67.18
2023-04-02T20:37:19.976Z,67.04
2023-04-02T20:39:46.430Z,66.56
2023-04-02T20:42:14.119Z,66.99
2023-04-02T20:44:41.315Z,67.29
2023-04-02T20:47:08.461Z,67.56
2023-04-02T20:49:35.251Z,67.50
2023-04-02T20:52:01.818Z,67.36
2023-04-02T20:54:28.112Z,67.27
2023-04-02T20:56:54.548Z,66.95
2023-04-02T20:59:21.057Z,67.45
2023-04-02T21:01:47.573Z,66.81
2023-04-02T21:04:14.205Z,66.98
2023-04-02T21:06:41.158Z,67.21
2023-04-02T21:09:14.422Z,67.46
2023-04-02T21:11:41.352Z,67.87
2023-04-02T21:14:07.854Z,67.59
2023-04-02T21:16:35.267Z,68.09
2023-04-02T21:19:04.986Z,67.92
2023-04-02T21:21:32.122Z,68.48
2023-04-02T21:24:00.961Z,68.53
2023-04-02T21:26:30.149Z,68.58
2023-04-02T21:28:57.287Z,69.19
2023-04-02T21:31:27.539Z,69.65
2023-04-02T21:33:56.120Z,70.11
2023-04-02T21:36:28.364Z,70.81
2023-04-02T21:38:58.432Z,70.75
2023-04-02T21:41:30.334Z,70.92
2023-04-02T21:43:58.493Z,71.14
2023-04-02T21:46:28.011Z,72.04
2023-04-02T21:48:56.577Z,72.22
2023-04-02T21:51:28.688Z,72.63
2023-04-02T21:53:55.251Z,72.85
2023-04-02T21:56:24.073Z,72.69
2023-04-02T21:58:51.337Z,72.96
2023-04-02T22:01:26.686Z,73.64
2023-04-02T22:03:55.411Z,73.97
2023-04-02T22:06:23.635Z,74.39
2023-04-02T22:08:56.307Z,74.59
2023-04-02T22:11:26.045Z,74.66
2023-04-02T22:13:53.226Z,75.21
2023-04-02T22:16:21.876Z,75.22
2023-04-02T22:18:50.191Z,75.55
2023-04-02T22:21:17.453Z,75.74
2023-04-02T22:23:44.378Z,76.43
2023-04-02T22:26:11.940Z,76.43
2023-04-02T22:28:38.402Z,77.04
2023-04-02T22:31:08.108Z,77.42
2023-04-02T22:33:35.676Z,77.73
2023-04-02T22:36:02.083Z,78.27
2023-04-02T22:38:29.046Z,78.05
2023-04-02T22:41:04.511Z,78.29
2023-04-02T22:43:31.682Z,77.91
2023-04-02T22:45:58.086Z,78.16
2023-04-02T22:48:24.649Z,78.45
2023-04-02T22:50:51.985Z,78.04
2023-04-02T22:53:19.486Z,78.29
2023-04-02T22:55:46.236Z,78.06
2023-04-02T22:58:12.641Z,78.12
2023-04-02T23:00:39.401Z,78.17
2023-04-02T23:03:06.205Z,78.21
2023-04-02T23:05:32.946Z,78.31
2023-04-02T23:07:59.260Z,78.35
2023-04-02T23:10:28.969Z,78.29
2023-04-02T23:12:57.160Z,78.72
2023-04-02T23:15:23.533Z,78.86
2023-04-02T23:17:50.007Z,78.98
2023-04-02T23:20:16.597Z,79.49
2023-04-02T23:22:42.941Z,80.17
2023-04-02T23:25:09.441Z,79.72
2023-04-02T23:27:35.853Z,79.93
2023-04-02T23:30:02.224Z,80.49
2023-04-02T23:32:28.624Z,81.34
2023-04-02T23:34:55.110Z,81.39
2023-04-02T23:37:21.511Z,81.02
2023-04-02T23:39:47.802Z,81.12
2023-04-02T23:42:14.137Z,80.94
2023-04-02T23:44:40.633Z,80.68
2023-04-02T23:47:07.086Z,81.11
2023-04-02T23:49:33.694Z,81.44
2023-04-02T23:52:00.152Z,81.47
2023-04-02T23:54:26.760Z,81.27
2023-04-02T23:56:53.158Z,81.28
2023-04-02T23:59:19.623Z,81.13
